Barnett Township, Illinois
Current Conditions -  °F | °C
As of 12:35 PM on Friday 24 Oct 2014 (Local Time) from KAAA Reporting Station
Scattered Clouds Scattered Clouds  
Wind Chill: 19°   Ceiling: Unl
Heat Index: 19°   Visibility: 7mi
Dew Point: 13°   Wind: 5mph
Humidity: 72%   Direction: 260°W
Pressure: 30.06"   Gusts: NA
Location:  40.143°N, 88.9637°W
Report Text: KAAA 241735Z AUTO 26004KT 7SM SCT015 19/13 A3006 RMK AO2 T01860134
Loading
Personal Weather Stations






























Interactive Weather Map
Tropical Storm Tracking
New forecast layout! Learn more

10-Day Weather Forecast

Advertisements
Track Severe Weather on mobile